M._banatov — UABI — position and weather

sailwx.info

Track history (hours):
 
Tides and Currents Weather Stations Pressure Air Temp Water Temp Dewpoint Dewpoint Depression Visibility Wind Speed Wind Dir Waves Ship Positions

M._banatov

Last reported at 2016-May-27 23:33 UTC. Time now 2016-May-30 12:37 UTC.
Position N 47°03' E 038°44'.

Length 132 m; draft 2.8 m.

Type: Ship. MMSI: 273272100.

Date/timePositionNaut miles runAvg speedWind from/ knotsBaromVisibWave heightAir tempDewpointWater temp
2016-May-27 23:33N 47°03' E 038°44'6 6.4
2016-May-27 22:33N 47°00' E 038°36'7 6.7
2016-May-27 21:33N 47°00' E 038°26'7 6.9
2016-May-27 20:33N 47°00' E 038°16'7 7.0
2016-May-27 19:33N 46°58' E 038°06'7 7.2
2016-May-27 18:33N 46°55' E 037°57'99 7.1
2016-May-27 04:33N 45°29' E 036°47'7 6.6
2016-May-27 03:34N 45°24' E 036°41'7 6.9
2016-May-27 02:33N 45°19' E 036°33'6 6.2
2016-May-27 01:31N 45°14' E 036°28'7 6.8
2016-May-27 00:32N 45°08' E 036°33'5 0.4
2016-May-26 11:20N 45°12' E 036°28'5 5.9
2016-May-26 10:34N 45°17' E 036°28'5 5.2
2016-May-26 09:33N 45°19' E 036°35'5 5.1
2016-May-26 08:33N 45°23' E 036°40'6 6.1
2016-May-26 07:33N 45°28' E 036°45'2 1.1
2016-May-26 05:33N 45°29' E 036°48'0 0.0
2016-May-26 04:33N 45°29' E 036°47'0 0.1
2016-May-26 03:33N 45°29' E 036°47'0 0.0
2016-May-26 02:27N 45°29' E 036°47'0 0.0
2016-May-26 01:33N 45°29' E 036°47'0 0.0
2016-May-25 23:29N 45°29' E 036°47'0 0.0
2016-May-25 22:29N 45°29' E 036°47'0 0.0
2016-May-25 21:32N 45°29' E 036°47'0 0.0
2016-May-25 20:26N 45°29' E 036°47'0 0.0
2016-May-25 19:05N 45°29' E 036°47'0 0.0
2016-May-25 18:08N 45°29' E 036°47'0 0.1
2016-May-25 17:20N 45°29' E 036°47'0 0.0
2016-May-25 16:32N 45°29' E 036°47'0 0.0
2016-May-25 15:32N 45°29' E 036°47'0 0.0
2016-May-25 14:32N 45°29' E 036°47'0 0.0
2016-May-25 11:29N 45°29' E 036°47'0 0.0
2016-May-25 10:32N 45°29' E 036°47'0 0.0
2016-May-25 09:32N 45°29' E 036°47'0 0.0
2016-May-25 08:17N 45°29' E 036°47'0 0.0
2016-May-25 07:29N 45°29' E 036°47'0 0.0
2016-May-25 06:32N 45°29' E 036°47'0 0.0
2016-May-25 05:32N 45°29' E 036°47'0 0.0
2016-May-25 04:23N 45°29' E 036°47'0 0.0
2016-May-25 03:32N 45°29' E 036°47'0 0.0
2016-May-25 02:17N 45°29' E 036°47'0 0.0
2016-May-24 23:26N 45°29' E 036°47'0 0.0
2016-May-24 22:23N 45°29' E 036°48'0 0.0
2016-May-24 17:32N 45°29' E 036°48'0 0.0
2016-May-24 16:26N 45°29' E 036°47'0 0.1
2016-May-24 15:29N 45°29' E 036°47'0 0.0
2016-May-24 14:32N 45°29' E 036°47'0 0.0
2016-May-24 13:29N 45°29' E 036°47'0 0.0
2016-May-24 12:32N 45°29' E 036°47'0 0.0
2016-May-24 11:05N 45°29' E 036°47'0 0.0
2016-May-24 07:11N 45°29' E 036°48'0 0.0
2016-May-24 06:20N 45°29' E 036°48'0 0.0
2016-May-24 05:29N 45°29' E 036°48'0 0.0
2016-May-24 04:29N 45°29' E 036°48'0 0.0
2016-May-24 03:29N 45°29' E 036°48'0 0.1
2016-May-24 02:14N 45°29' E 036°47'0 0.1
2016-May-24 01:33N 45°29' E 036°47'0 0.0
2016-May-24 00:15N 45°29' E 036°47'0 0.0
2016-May-23 23:33N 45°29' E 036°47'0 0.0
2016-May-23 22:33N 45°29' E 036°47'0 0.0
2016-May-23 21:30N 45°29' E 036°47'0 0.0
2016-May-23 20:33N 45°29' E 036°47'0 0.0
2016-May-23 19:27N 45°29' E 036°47'0 0.0
2016-May-23 18:30N 45°29' E 036°47'0 0.0
2016-May-23 17:31N 45°29' E 036°47'0 0.0
2016-May-23 16:31N 45°29' E 036°47'0 0.0
2016-May-23 15:16N 45°29' E 036°47'0 0.0
2016-May-23 13:28N 45°29' E 036°47'0 0.0
2016-May-23 12:31N 45°29' E 036°47'0 0.0
2016-May-23 11:28N 45°29' E 036°47'0 0.0
2016-May-23 10:31N 45°29' E 036°47'0 0.0
2016-May-23 09:07N 45°29' E 036°47'0 0.0
2016-May-23 08:31N 45°29' E 036°47'0 0.0
2016-May-23 07:28N 45°29' E 036°47'0 0.0
2016-May-23 06:31N 45°29' E 036°47'0 0.0
2016-May-23 05:28N 45°29' E 036°47'0 0.0
2016-May-23 04:22N 45°29' E 036°47'0 0.0
2016-May-23 03:31N 45°29' E 036°47'0 0.0
2016-May-23 02:28N 45°29' E 036°47'0 0.0
2016-May-23 01:31N 45°29' E 036°47'0 0.0
2016-May-23 00:25N 45°29' E 036°47'0 0.0
2016-May-22 23:28N 45°29' E 036°47'0 0.0
2016-May-22 22:28N 45°29' E 036°47'0 0.0
2016-May-22 21:22N 45°29' E 036°47'0 0.0
2016-May-22 20:22N 45°29' E 036°47'0 0.0
2016-May-22 19:25N 45°29' E 036°47'0 0.0
2016-May-22 18:28N 45°29' E 036°47'0 0.0
2016-May-22 17:28N 45°29' E 036°47'0 0.0
2016-May-22 16:22N 45°29' E 036°47'0 0.0
2016-May-22 15:13N 45°29' E 036°47'0 0.0
2016-May-22 14:31N 45°29' E 036°47'0 0.0
2016-May-22 12:31N 45°29' E 036°47'0 0.0
2016-May-22 06:31N 45°29' E 036°47'0 0.1
2016-May-22 05:10N 45°29' E 036°47'0 0.0
2016-May-22 04:28N 45°29' E 036°47'0 0.0
2016-May-22 03:31N 45°29' E 036°47'0 0.0
2016-May-22 02:31N 45°29' E 036°47'0 0.0
2016-May-22 01:28N 45°29' E 036°47'0 0.0
2016-May-22 00:31N 45°29' E 036°47'0 0.0
2016-May-21 23:31N 45°29' E 036°47'0 0.1
2016-May-21 22:31N 45°29' E 036°47'0 0.1
2016-May-21 21:28N 45°29' E 036°48'0 0.0
2016-May-21 20:16N 45°29' E 036°48'0 0.0
2016-May-21 19:28N 45°29' E 036°48'0 0.0
2016-May-21 18:31N 45°29' E 036°48'0 0.0
2016-May-21 16:28N 45°29' E 036°48'0 0.0
2016-May-21 15:25N 45°29' E 036°48'0 0.0
2016-May-21 14:31N 45°29' E 036°48'0 0.0
2016-May-21 13:28N 45°29' E 036°48'0 0.0
2016-May-21 12:28N 45°29' E 036°48'0 0.0
2016-May-21 10:13N 45°29' E 036°48'0 0.0
2016-May-21 09:31N 45°29' E 036°48'0 0.0
2016-May-21 08:04N 45°29' E 036°48'0 0.0
2016-May-21 07:31N 45°29' E 036°48'0 0.0
2016-May-21 06:31N 45°29' E 036°48'0 0.0
2016-May-21 05:28N 45°29' E 036°48'0 0.0
2016-May-21 04:31N 45°29' E 036°48'0 0.0
2016-May-21 03:31N 45°29' E 036°48'0 0.0
2016-May-21 02:22N 45°29' E 036°48'0 0.0
2016-May-21 01:31N 45°29' E 036°48'0 0.0
2016-May-21 00:25N 45°29' E 036°48'0 0.0
2016-May-20 21:13N 45°29' E 036°48'0 0.0
2016-May-20 16:04N 45°29' E 036°48'0 0.0
2016-May-20 13:31N 45°29' E 036°48'0 0.0
2016-May-20 12:28N 45°29' E 036°48'0 0.0
2016-May-20 11:31N 45°29' E 036°48'0 0.0
2016-May-20 08:16N 45°29' E 036°48'0 0.0
2016-May-20 07:22N 45°29' E 036°48'0 0.0
2016-May-20 06:28N 45°29' E 036°48'0 0.0
2016-May-20 04:25N 45°29' E 036°48'0 0.0
2016-May-20 03:31N 45°29' E 036°48'0 0.0
2016-May-20 02:28N 45°29' E 036°48'0 0.0
2016-May-20 01:22N 45°29' E 036°48'0 0.0
2016-May-20 00:28N 45°29' E 036°48'0 0.0
2016-May-19 23:10N 45°29' E 036°48'0 0.0
2016-May-19 22:31N 45°29' E 036°48'0 0.0
2016-May-19 20:22N 45°29' E 036°48'0 0.0
2016-May-19 19:28N 45°29' E 036°48'0 0.0
2016-May-19 18:31N 45°29' E 036°48'0 0.0
2016-May-19 17:25N 45°29' E 036°48'0 0.0
2016-May-19 16:31N 45°29' E 036°48'0 0.0
2016-May-19 14:28N 45°29' E 036°48'0 0.0
2016-May-19 13:25N 45°29' E 036°48'0 0.0
2016-May-19 12:32N 45°29' E 036°48'0 0.0
2016-May-19 11:32N 45°29' E 036°48'0 0.0
2016-May-19 10:32N 45°29' E 036°48'0 0.0
2016-May-19 09:32N 45°29' E 036°48'0 0.0
2016-May-19 08:29N 45°29' E 036°48'0 0.0
2016-May-19 07:26N 45°29' E 036°48'0 0.0
2016-May-19 06:32N 45°29' E 036°48'0 0.0
2016-May-19 05:32N 45°29' E 036°48'0 0.0
2016-May-19 04:26N 45°29' E 036°48'0 0.0
2016-May-19 03:29N 45°29' E 036°48'0 0.0
2016-May-18 23:11N 45°29' E 036°48'0 0.0
2016-May-18 22:05N 45°29' E 036°48'0 0.0
2016-May-18 21:29N 45°29' E 036°48'0 0.0
2016-May-18 17:32N 45°29' E 036°48'0 0.0
2016-May-18 16:29N 45°29' E 036°48'0 0.0
2016-May-18 15:32N 45°29' E 036°48'0 0.0
2016-May-18 14:20N 45°29' E 036°48'0 0.0
2016-May-18 13:29N 45°29' E 036°48'0 0.0
2016-May-18 12:29N 45°29' E 036°48'0 0.0
2016-May-18 11:26N 45°29' E 036°48'0 0.0
2016-May-18 10:32N 45°29' E 036°48'0 0.0
2016-May-18 09:32N 45°29' E 036°48'0 0.0
2016-May-18 08:26N 45°29' E 036°48'0 0.0
2016-May-18 07:32N 45°29' E 036°48'0 0.0
2016-May-18 06:29N 45°29' E 036°48'0 0.0
2016-May-18 05:32N 45°29' E 036°48'0 0.0
2016-May-18 04:32N 45°29' E 036°48'0 0.0
2016-May-18 03:17N 45°29' E 036°48'0 0.0
2016-May-18 02:29N 45°29' E 036°48'0 0.0
2016-May-18 01:29N 45°29' E 036°48'  
Track history (hours):
 
Tides and Currents Weather Stations Pressure Air Temp Water Temp Dewpoint Dewpoint Depression Visibility Wind Speed Wind Dir Waves Ship Positions

M._banatov

Last reported at 2016-May-27 23:33 UTC. Time now 2016-May-30 12:37 UTC.
Position N 47°03' E 038°44'.

Length 132 m; draft 2.8 m.

Type: Ship. MMSI: 273272100.

Date/timePositionNaut miles runAvg speedWind from/ knotsBaromVisibWave heightAir tempDewpointWater temp
2016-May-27 23:33N 47°03' E 038°44'6 6.4
2016-May-27 22:33N 47°00' E 038°36'7 6.7
2016-May-27 21:33N 47°00' E 038°26'7 6.9
2016-May-27 20:33N 47°00' E 038°16'7 7.0
2016-May-27 19:33N 46°58' E 038°06'7 7.2
2016-May-27 18:33N 46°55' E 037°57'99 7.1
2016-May-27 04:33N 45°29' E 036°47'7 6.6
2016-May-27 03:34N 45°24' E 036°41'7 6.9
2016-May-27 02:33N 45°19' E 036°33'6 6.2
2016-May-27 01:31N 45°14' E 036°28'7 6.8
2016-May-27 00:32N 45°08' E 036°33'5 0.4
2016-May-26 11:20N 45°12' E 036°28'5 5.9
2016-May-26 10:34N 45°17' E 036°28'5 5.2
2016-May-26 09:33N 45°19' E 036°35'5 5.1
2016-May-26 08:33N 45°23' E 036°40'6 6.1
2016-May-26 07:33N 45°28' E 036°45'2 1.1
2016-May-26 05:33N 45°29' E 036°48'0 0.0
2016-May-26 04:33N 45°29' E 036°47'0 0.1
2016-May-26 03:33N 45°29' E 036°47'0 0.0
2016-May-26 02:27N 45°29' E 036°47'0 0.0
2016-May-26 01:33N 45°29' E 036°47'0 0.0
2016-May-25 23:29N 45°29' E 036°47'0 0.0
2016-May-25 22:29N 45°29' E 036°47'0 0.0
2016-May-25 21:32N 45°29' E 036°47'0 0.0
2016-May-25 20:26N 45°29' E 036°47'0 0.0
2016-May-25 19:05N 45°29' E 036°47'0 0.0
2016-May-25 18:08N 45°29' E 036°47'0 0.1
2016-May-25 17:20N 45°29' E 036°47'0 0.0
2016-May-25 16:32N 45°29' E 036°47'0 0.0
2016-May-25 15:32N 45°29' E 036°47'0 0.0
2016-May-25 14:32N 45°29' E 036°47'0 0.0
2016-May-25 11:29N 45°29' E 036°47'0 0.0
2016-May-25 10:32N 45°29' E 036°47'0 0.0
2016-May-25 09:32N 45°29' E 036°47'0 0.0
2016-May-25 08:17N 45°29' E 036°47'0 0.0
2016-May-25 07:29N 45°29' E 036°47'0 0.0
2016-May-25 06:32N 45°29' E 036°47'0 0.0
2016-May-25 05:32N 45°29' E 036°47'0 0.0
2016-May-25 04:23N 45°29' E 036°47'0 0.0
2016-May-25 03:32N 45°29' E 036°47'0 0.0
2016-May-25 02:17N 45°29' E 036°47'0 0.0
2016-May-24 23:26N 45°29' E 036°47'0 0.0
2016-May-24 22:23N 45°29' E 036°48'0 0.0
2016-May-24 17:32N 45°29' E 036°48'0 0.0
2016-May-24 16:26N 45°29' E 036°47'0 0.1
2016-May-24 15:29N 45°29' E 036°47'0 0.0
2016-May-24 14:32N 45°29' E 036°47'0 0.0
2016-May-24 13:29N 45°29' E 036°47'0 0.0
2016-May-24 12:32N 45°29' E 036°47'0 0.0
2016-May-24 11:05N 45°29' E 036°47'0 0.0
2016-May-24 07:11N 45°29' E 036°48'0 0.0
2016-May-24 06:20N 45°29' E 036°48'0 0.0
2016-May-24 05:29N 45°29' E 036°48'0 0.0
2016-May-24 04:29N 45°29' E 036°48'0 0.0
2016-May-24 03:29N 45°29' E 036°48'0 0.1
2016-May-24 02:14N 45°29' E 036°47'0 0.1
2016-May-24 01:33N 45°29' E 036°47'0 0.0
2016-May-24 00:15N 45°29' E 036°47'0 0.0
2016-May-23 23:33N 45°29' E 036°47'0 0.0
2016-May-23 22:33N 45°29' E 036°47'0 0.0
2016-May-23 21:30N 45°29' E 036°47'0 0.0
2016-May-23 20:33N 45°29' E 036°47'0 0.0
2016-May-23 19:27N 45°29' E 036°47'0 0.0
2016-May-23 18:30N 45°29' E 036°47'0 0.0
2016-May-23 17:31N 45°29' E 036°47'0 0.0
2016-May-23 16:31N 45°29' E 036°47'0 0.0
2016-May-23 15:16N 45°29' E 036°47'0 0.0
2016-May-23 13:28N 45°29' E 036°47'0 0.0
2016-May-23 12:31N 45°29' E 036°47'0 0.0
2016-May-23 11:28N 45°29' E 036°47'0 0.0
2016-May-23 10:31N 45°29' E 036°47'0 0.0
2016-May-23 09:07N 45°29' E 036°47'0 0.0
2016-May-23 08:31N 45°29' E 036°47'0 0.0
2016-May-23 07:28N 45°29' E 036°47'0 0.0
2016-May-23 06:31N 45°29' E 036°47'0 0.0
2016-May-23 05:28N 45°29' E 036°47'0 0.0
2016-May-23 04:22N 45°29' E 036°47'0 0.0
2016-May-23 03:31N 45°29' E 036°47'0 0.0
2016-May-23 02:28N 45°29' E 036°47'0 0.0
2016-May-23 01:31N 45°29' E 036°47'0 0.0
2016-May-23 00:25N 45°29' E 036°47'0 0.0
2016-May-22 23:28N 45°29' E 036°47'0 0.0
2016-May-22 22:28N 45°29' E 036°47'0 0.0
2016-May-22 21:22N 45°29' E 036°47'0 0.0
2016-May-22 20:22N 45°29' E 036°47'0 0.0
2016-May-22 19:25N 45°29' E 036°47'0 0.0
2016-May-22 18:28N 45°29' E 036°47'0 0.0
2016-May-22 17:28N 45°29' E 036°47'0 0.0
2016-May-22 16:22N 45°29' E 036°47'0 0.0
2016-May-22 15:13N 45°29' E 036°47'0 0.0
2016-May-22 14:31N 45°29' E 036°47'0 0.0
2016-May-22 12:31N 45°29' E 036°47'0 0.0
2016-May-22 06:31N 45°29' E 036°47'0 0.1
2016-May-22 05:10N 45°29' E 036°47'0 0.0
2016-May-22 04:28N 45°29' E 036°47'0 0.0
2016-May-22 03:31N 45°29' E 036°47'0 0.0
2016-May-22 02:31N 45°29' E 036°47'0 0.0
2016-May-22 01:28N 45°29' E 036°47'0 0.0
2016-May-22 00:31N 45°29' E 036°47'0 0.0
2016-May-21 23:31N 45°29' E 036°47'0 0.1
2016-May-21 22:31N 45°29' E 036°47'0 0.1
2016-May-21 21:28N 45°29' E 036°48'0 0.0
2016-May-21 20:16N 45°29' E 036°48'0 0.0
2016-May-21 19:28N 45°29' E 036°48'0 0.0
2016-May-21 18:31N 45°29' E 036°48'0 0.0
2016-May-21 16:28N 45°29' E 036°48'0 0.0
2016-May-21 15:25N 45°29' E 036°48'0 0.0
2016-May-21 14:31N 45°29' E 036°48'0 0.0
2016-May-21 13:28N 45°29' E 036°48'0 0.0
2016-May-21 12:28N 45°29' E 036°48'0 0.0
2016-May-21 10:13N 45°29' E 036°48'0 0.0
2016-May-21 09:31N 45°29' E 036°48'0 0.0
2016-May-21 08:04N 45°29' E 036°48'0 0.0
2016-May-21 07:31N 45°29' E 036°48'0 0.0
2016-May-21 06:31N 45°29' E 036°48'0 0.0
2016-May-21 05:28N 45°29' E 036°48'0 0.0
2016-May-21 04:31N 45°29' E 036°48'0 0.0
2016-May-21 03:31N 45°29' E 036°48'0 0.0
2016-May-21 02:22N 45°29' E 036°48'0 0.0
2016-May-21 01:31N 45°29' E 036°48'0 0.0
2016-May-21 00:25N 45°29' E 036°48'0 0.0
2016-May-20 21:13N 45°29' E 036°48'0 0.0
2016-May-20 16:04N 45°29' E 036°48'0 0.0
2016-May-20 13:31N 45°29' E 036°48'0 0.0
2016-May-20 12:28N 45°29' E 036°48'0 0.0
2016-May-20 11:31N 45°29' E 036°48'0 0.0
2016-May-20 08:16N 45°29' E 036°48'0 0.0
2016-May-20 07:22N 45°29' E 036°48'0 0.0
2016-May-20 06:28N 45°29' E 036°48'0 0.0
2016-May-20 04:25N 45°29' E 036°48'0 0.0
2016-May-20 03:31N 45°29' E 036°48'0 0.0
2016-May-20 02:28N 45°29' E 036°48'0 0.0
2016-May-20 01:22N 45°29' E 036°48'0 0.0
2016-May-20 00:28N 45°29' E 036°48'0 0.0
2016-May-19 23:10N 45°29' E 036°48'0 0.0
2016-May-19 22:31N 45°29' E 036°48'0 0.0
2016-May-19 20:22N 45°29' E 036°48'0 0.0
2016-May-19 19:28N 45°29' E 036°48'0 0.0
2016-May-19 18:31N 45°29' E 036°48'0 0.0
2016-May-19 17:25N 45°29' E 036°48'0 0.0
2016-May-19 16:31N 45°29' E 036°48'0 0.0
2016-May-19 14:28N 45°29' E 036°48'0 0.0
2016-May-19 13:25N 45°29' E 036°48'0 0.0
2016-May-19 12:32N 45°29' E 036°48'0 0.0
2016-May-19 11:32N 45°29' E 036°48'0 0.0
2016-May-19 10:32N 45°29' E 036°48'0 0.0
2016-May-19 09:32N 45°29' E 036°48'0 0.0
2016-May-19 08:29N 45°29' E 036°48'0 0.0
2016-May-19 07:26N 45°29' E 036°48'0 0.0
2016-May-19 06:32N 45°29' E 036°48'0 0.0
2016-May-19 05:32N 45°29' E 036°48'0 0.0
2016-May-19 04:26N 45°29' E 036°48'0 0.0
2016-May-19 03:29N 45°29' E 036°48'0 0.0
2016-May-18 23:11N 45°29' E 036°48'0 0.0
2016-May-18 22:05N 45°29' E 036°48'0 0.0
2016-May-18 21:29N 45°29' E 036°48'0 0.0
2016-May-18 17:32N 45°29' E 036°48'0 0.0
2016-May-18 16:29N 45°29' E 036°48'0 0.0
2016-May-18 15:32N 45°29' E 036°48'0 0.0
2016-May-18 14:20N 45°29' E 036°48'0 0.0
2016-May-18 13:29N 45°29' E 036°48'0 0.0
2016-May-18 12:29N 45°29' E 036°48'0 0.0
2016-May-18 11:26N 45°29' E 036°48'0 0.0
2016-May-18 10:32N 45°29' E 036°48'0 0.0
2016-May-18 09:32N 45°29' E 036°48'0 0.0
2016-May-18 08:26N 45°29' E 036°48'0 0.0
2016-May-18 07:32N 45°29' E 036°48'0 0.0
2016-May-18 06:29N 45°29' E 036°48'0 0.0
2016-May-18 05:32N 45°29' E 036°48'0 0.0
2016-May-18 04:32N 45°29' E 036°48'0 0.0
2016-May-18 03:17N 45°29' E 036°48'0 0.0
2016-May-18 02:29N 45°29' E 036°48'0 0.0
2016-May-18 01:29N 45°29' E 036°48'  

Dump ship's entire track history